createdAt,value
2023-02-22T00:01:30.090Z,3.13
2023-02-22T00:03:56.689Z,1.67
2023-02-22T00:06:25.185Z,1.93
2023-02-22T00:08:52.619Z,1.73
2023-02-22T00:11:20.701Z,2.07
2023-02-22T00:13:47.741Z,2.23
2023-02-22T00:16:22.386Z,1.83
2023-02-22T00:18:49.848Z,1.53
2023-02-22T00:21:17.334Z,1.70
2023-02-22T00:23:49.476Z,2.60
2023-02-22T00:26:19.350Z,2.27
2023-02-22T00:28:48.174Z,2.33
2023-02-22T00:31:15.436Z,1.83
2023-02-22T00:33:42.355Z,2.00
2023-02-22T00:36:10.820Z,2.50
2023-02-22T00:38:38.064Z,2.20
2023-02-22T00:41:05.018Z,2.87
2023-02-22T00:43:31.562Z,2.33
2023-02-22T00:45:58.599Z,2.10
2023-02-22T00:48:25.440Z,2.90
2023-02-22T00:50:55.413Z,1.63
2023-02-22T00:53:23.961Z,1.90
2023-02-22T00:55:50.939Z,2.17
2023-02-22T00:58:18.707Z,1.73
2023-02-22T01:00:46.333Z,2.70
2023-02-22T01:03:15.649Z,2.43
2023-02-22T01:05:43.112Z,1.60
2023-02-22T01:08:11.992Z,1.47
2023-02-22T01:10:39.425Z,1.77
2023-02-22T01:13:09.297Z,2.57
2023-02-22T01:15:38.300Z,2.13
2023-02-22T01:18:06.000Z,1.93
2023-02-22T01:20:33.149Z,1.70
2023-02-22T01:23:01.686Z,1.37
2023-02-22T01:25:30.796Z,2.33
2023-02-22T01:27:59.476Z,2.07
2023-02-22T01:30:29.659Z,2.07
2023-02-22T01:32:56.429Z,2.83
2023-02-22T01:35:27.926Z,2.10
2023-02-22T01:37:55.016Z,1.63
2023-02-22T01:40:34.862Z,2.00
2023-02-22T01:43:23.202Z,2.13
2023-02-22T01:45:53.279Z,2.00
2023-02-22T01:48:29.790Z,2.20
2023-02-22T01:51:10.973Z,2.20
2023-02-22T01:53:43.114Z,1.40
2023-02-22T01:56:10.635Z,1.97
2023-02-22T01:58:40.640Z,1.70
2023-02-22T02:01:08.418Z,1.97
2023-02-22T02:03:38.580Z,1.10
2023-02-22T02:06:08.171Z,2.27
2023-02-22T02:08:49.937Z,1.53
2023-02-22T02:11:19.987Z,2.10
2023-02-22T02:13:49.895Z,1.60
2023-02-22T02:16:16.888Z,2.97
2023-02-22T02:18:43.577Z,1.47
2023-02-22T02:21:28.790Z,1.97
2023-02-22T02:24:43.023Z,1.73
2023-02-22T02:27:19.905Z,1.63
2023-02-22T02:30:19.711Z,1.60
2023-02-22T02:33:11.582Z,2.10
2023-02-22T02:35:49.202Z,1.97
2023-02-22T02:38:30.732Z,1.40
2023-02-22T02:41:16.320Z,2.07
2023-02-22T02:43:53.400Z,1.97
2023-02-22T02:46:37.261Z,2.03
2023-02-22T02:49:15.235Z,2.17
2023-02-22T02:51:48.707Z,1.00
2023-02-22T02:54:17.643Z,1.60
2023-02-22T02:56:45.760Z,1.83
2023-02-22T02:59:24.550Z,1.30
2023-02-22T03:02:14.482Z,1.87
2023-02-22T03:05:07.502Z,2.10
2023-02-22T03:08:00.685Z,1.63
2023-02-22T03:10:59.067Z,2.20
2023-02-22T03:14:16.521Z,2.00
2023-02-22T03:16:50.344Z,2.27
2023-02-22T03:19:38.398Z,1.33
2023-02-22T03:22:14.625Z,1.40
2023-02-22T03:25:08.345Z,1.17
2023-02-22T03:27:37.749Z,1.53
2023-02-22T03:30:09.288Z,1.87
2023-02-22T03:32:39.608Z,1.50
2023-02-22T03:35:11.211Z,0.80
2023-02-22T03:37:44.483Z,1.43
2023-02-22T03:40:17.091Z,1.63
2023-02-22T03:42:47.543Z,1.17
2023-02-22T03:45:17.861Z,1.27
2023-02-22T03:47:53.754Z,1.30
2023-02-22T03:50:26.430Z,1.70
2023-02-22T03:52:53.761Z,1.90
2023-02-22T03:55:20.410Z,1.43
2023-02-22T03:57:51.913Z,2.03
2023-02-22T04:00:25.032Z,1.80
2023-02-22T04:02:51.756Z,2.37
2023-02-22T04:05:19.148Z,1.83
2023-02-22T04:07:45.720Z,1.40
2023-02-22T04:10:13.944Z,1.50
2023-02-22T04:12:40.491Z,1.53
2023-02-22T04:15:08.794Z,1.10
2023-02-22T04:17:35.328Z,1.70
2023-02-22T04:20:01.891Z,1.30
2023-02-22T04:22:28.401Z,1.87
2023-02-22T04:24:55.099Z,0.90
2023-02-22T04:27:21.697Z,2.00
2023-02-22T04:29:48.246Z,1.60
2023-02-22T04:32:14.837Z,0.97
2023-02-22T04:34:41.543Z,2.17
2023-02-22T04:37:08.140Z,1.47
2023-02-22T04:39:34.734Z,1.40
2023-02-22T04:42:01.685Z,1.93
2023-02-22T04:44:28.213Z,2.03
2023-02-22T04:46:54.888Z,1.10
2023-02-22T04:49:21.858Z,1.67
2023-02-22T04:51:48.407Z,1.20
2023-02-22T04:54:17.251Z,1.20
2023-02-22T04:56:45.087Z,1.43
2023-02-22T04:59:11.994Z,1.37
2023-02-22T05:01:38.991Z,1.60
2023-02-22T05:04:06.976Z,0.50
2023-02-22T05:06:33.934Z,2.20
2023-02-22T05:09:00.552Z,1.70
2023-02-22T05:11:27.188Z,1.43
2023-02-22T05:13:53.769Z,1.80
2023-02-22T05:16:20.437Z,1.70
2023-02-22T05:18:47.147Z,1.33
2023-02-22T05:21:13.720Z,1.07
2023-02-22T05:23:40.462Z,1.00
2023-02-22T05:26:08.723Z,1.20
2023-02-22T05:28:36.261Z,1.03
2023-02-22T05:31:03.006Z,1.37
2023-02-22T05:33:29.657Z,1.00
2023-02-22T05:35:56.291Z,1.13
2023-02-22T05:38:23.128Z,1.43
2023-02-22T05:40:49.851Z,1.07
2023-02-22T05:43:16.732Z,1.80
2023-02-22T05:45:43.347Z,0.70
2023-02-22T05:48:09.938Z,1.70
2023-02-22T05:50:36.485Z,1.50
2023-02-22T05:53:03.060Z,1.00
2023-02-22T05:55:29.734Z,1.13
2023-02-22T05:57:56.309Z,1.03
2023-02-22T06:00:33.443Z,0.90
2023-02-22T06:03:05.878Z,1.70
2023-02-22T06:05:32.874Z,1.47
2023-02-22T06:08:01.355Z,1.20
2023-02-22T06:10:28.604Z,1.00
2023-02-22T06:12:55.866Z,0.80
2023-02-22T06:15:24.877Z,1.73
2023-02-22T06:17:52.538Z,1.00
2023-02-22T06:20:22.764Z,1.40
2023-02-22T06:22:51.184Z,1.17
2023-02-22T06:25:20.657Z,1.10
2023-02-22T06:27:47.233Z,1.33
2023-02-22T06:30:15.910Z,2.13
2023-02-22T06:32:42.482Z,1.70
2023-02-22T06:35:09.611Z,1.00
2023-02-22T06:37:38.686Z,1.53
2023-02-22T06:40:06.009Z,1.93
2023-02-22T06:42:32.866Z,2.70
2023-02-22T06:44:59.603Z,1.33
2023-02-22T06:47:26.138Z,1.67
2023-02-22T06:49:58.414Z,1.63
2023-02-22T06:52:25.500Z,1.17
2023-02-22T06:54:52.506Z,1.73
2023-02-22T06:57:19.402Z,2.40
2023-02-22T06:59:46.517Z,0.63
2023-02-22T07:02:14.236Z,1.10
2023-02-22T07:04:43.445Z,1.43
2023-02-22T07:07:10.628Z,0.83
2023-02-22T07:09:37.200Z,1.23
2023-02-22T07:12:04.084Z,0.97
2023-02-22T07:14:30.709Z,1.33
2023-02-22T07:16:57.240Z,0.77
2023-02-22T07:19:24.843Z,1.97
2023-02-22T07:21:55.389Z,1.83
2023-02-22T07:24:21.975Z,0.87
2023-02-22T07:26:48.596Z,0.67
2023-02-22T07:29:15.145Z,1.10
2023-02-22T07:31:41.788Z,2.43
2023-02-22T07:34:08.417Z,1.53
2023-02-22T07:36:35.011Z,0.67
2023-02-22T07:39:01.596Z,0.33
2023-02-22T07:41:28.186Z,0.70
2023-02-22T07:43:54.742Z,1.60
2023-02-22T07:46:21.311Z,0.20
2023-02-22T07:48:47.885Z,1.90
2023-02-22T07:51:20.602Z,0.30
2023-02-22T07:53:48.410Z,1.00
2023-02-22T07:56:15.925Z,0.70
2023-02-22T07:58:42.454Z,0.47
2023-02-22T08:01:09.048Z,1.07
2023-02-22T08:03:36.830Z,0.53
2023-02-22T08:06:05.899Z,1.00
2023-02-22T08:08:32.605Z,1.60
2023-02-22T08:10:59.180Z,0.70
2023-02-22T08:13:26.102Z,1.37
2023-02-22T08:15:54.166Z,2.13
2023-02-22T08:18:24.646Z,1.67
2023-02-22T08:20:53.012Z,0.73
2023-02-22T08:23:22.571Z,1.67
2023-02-22T08:25:49.198Z,1.40
2023-02-22T08:28:19.917Z,2.13
2023-02-22T08:30:46.605Z,1.57
2023-02-22T08:33:16.891Z,2.00
2023-02-22T08:35:43.580Z,1.40
2023-02-22T08:38:27.079Z,2.40
2023-02-22T08:40:54.057Z,1.60
2023-02-22T08:43:21.726Z,1.47
2023-02-22T08:45:49.533Z,2.00
2023-02-22T08:48:16.699Z,2.03
2023-02-22T08:50:44.520Z,2.30
2023-02-22T08:53:13.730Z,1.90
2023-02-22T08:55:41.939Z,2.13
2023-02-22T08:58:10.006Z,2.33
2023-02-22T09:00:39.047Z,2.83
2023-02-22T09:03:09.162Z,2.53
2023-02-22T09:05:35.852Z,2.13
2023-02-22T09:08:02.528Z,2.30
2023-02-22T09:10:31.963Z,2.53
2023-02-22T09:13:01.086Z,1.43
2023-02-22T09:15:28.644Z,1.97
2023-02-22T09:17:55.867Z,2.03
2023-02-22T09:20:23.724Z,2.77
2023-02-22T09:22:50.970Z,1.97
2023-02-22T09:25:18.649Z,3.13
2023-02-22T09:27:48.277Z,2.90
2023-02-22T09:30:32.055Z,4.57
2023-02-22T09:33:05.497Z,4.77
2023-02-22T09:35:36.134Z,8.07
2023-02-22T09:38:06.594Z,10.83
2023-02-22T09:40:41.159Z,7.17
2023-02-22T09:43:07.712Z,5.60
2023-02-22T09:46:00.664Z,4.60
2023-02-22T09:48:27.271Z,3.60
2023-02-22T09:50:59.039Z,2.40
2023-02-22T09:53:29.925Z,2.90
2023-02-22T09:56:05.384Z,2.30
2023-02-22T09:58:42.990Z,2.87
2023-02-22T10:01:32.833Z,3.20
2023-02-22T10:04:14.187Z,5.40
2023-02-22T10:07:10.378Z,4.20
2023-02-22T10:09:42.830Z,4.00
2023-02-22T10:12:28.414Z,3.47
2023-02-22T10:15:38.595Z,5.53
2023-02-22T10:18:28.021Z,4.73
2023-02-22T10:21:00.607Z,3.70
2023-02-22T10:23:36.766Z,3.23
2023-02-22T10:26:17.402Z,3.10
2023-02-22T10:28:53.486Z,2.67
2023-02-22T10:31:27.162Z,2.97
2023-02-22T10:34:03.365Z,2.30
2023-02-22T10:36:30.279Z,2.53
2023-02-22T10:39:00.957Z,3.17
2023-02-22T10:41:39.108Z,3.03
2023-02-22T10:44:05.694Z,3.27
2023-02-22T10:46:34.353Z,3.90
2023-02-22T10:49:04.816Z,3.83
2023-02-22T10:51:31.387Z,3.90
2023-02-22T10:54:13.292Z,3.73
2023-02-22T10:56:50.984Z,3.70
2023-02-22T10:59:28.588Z,2.90
2023-02-22T11:01:55.326Z,3.07
2023-02-22T11:04:22.795Z,2.70
2023-02-22T11:07:08.557Z,3.90
2023-02-22T11:10:09.571Z,3.80
2023-02-22T11:12:42.454Z,3.23
2023-02-22T11:15:22.381Z,3.33
2023-02-22T11:17:51.892Z,3.30
2023-02-22T11:20:34.641Z,3.27
2023-02-22T11:23:04.291Z,3.33
2023-02-22T11:30:46.912Z,4.07
2023-02-22T11:33:16.757Z,3.50
2023-02-22T11:35:55.021Z,4.17
2023-02-22T11:38:24.383Z,3.33
2023-02-22T11:41:17.741Z,4.00
2023-02-22T11:43:48.967Z,3.47
2023-02-22T11:46:30.754Z,4.23
2023-02-22T11:49:10.397Z,3.80
2023-02-22T11:51:43.006Z,3.00
2023-02-22T11:54:31.559Z,3.27
2023-02-22T11:57:25.381Z,3.30
2023-02-22T12:00:24.326Z,3.60
2023-02-22T12:03:14.547Z,3.10
2023-02-22T12:05:59.753Z,3.50
2023-02-22T12:08:55.530Z,2.90
2023-02-22T12:11:24.756Z,3.87
2023-02-22T12:14:47.198Z,3.87
2023-02-22T12:17:23.512Z,3.00
2023-02-22T12:19:54.768Z,3.50
2023-02-22T12:22:26.824Z,3.27
2023-02-22T12:25:08.984Z,3.83
2023-02-22T12:27:42.310Z,4.30
2023-02-22T12:30:13.019Z,4.10
2023-02-22T12:32:48.753Z,3.87
2023-02-22T12:35:27.067Z,3.70
2023-02-22T12:38:04.167Z,3.53
2023-02-22T12:40:39.244Z,3.63
2023-02-22T12:43:18.239Z,4.37
2023-02-22T12:46:09.931Z,4.40
2023-02-22T12:48:48.564Z,3.87
2023-02-22T12:51:27.806Z,4.20
2023-02-22T12:54:16.927Z,3.70
2023-02-22T12:57:08.199Z,4.03
2023-02-22T12:59:49.195Z,3.70
2023-02-22T13:02:19.728Z,3.90
2023-02-22T13:04:46.718Z,4.40
2023-02-22T13:07:33.471Z,4.33
2023-02-22T13:10:18.972Z,4.00
2023-02-22T13:13:03.955Z,4.07
2023-02-22T13:15:40.952Z,3.83
2023-02-22T13:18:30.068Z,4.67
2023-02-22T13:21:27.617Z,4.97
2023-02-22T13:24:05.858Z,4.27
2023-02-22T13:26:45.361Z,4.97
2023-02-22T13:29:20.777Z,4.47
2023-02-22T13:32:19.482Z,4.83
2023-02-22T13:35:01.078Z,4.30
2023-02-22T13:37:36.779Z,4.30
2023-02-22T13:40:40.171Z,3.97
2023-02-22T13:43:27.934Z,4.23
2023-02-22T13:46:13.041Z,4.70
2023-02-22T13:48:48.860Z,4.63
2023-02-22T13:51:42.976Z,3.90
2023-02-22T13:54:16.450Z,4.30
2023-02-22T13:56:45.283Z,3.93
2023-02-22T13:59:47.518Z,3.97
2023-02-22T14:03:10.581Z,3.60
2023-02-22T14:05:43.240Z,3.73
2023-02-22T14:08:19.274Z,4.77
2023-02-22T14:10:50.356Z,3.87
2023-02-22T14:13:22.749Z,3.77
2023-02-22T14:16:02.523Z,4.10
2023-02-22T14:18:41.165Z,4.20
2023-02-22T14:21:14.492Z,4.60
2023-02-22T14:23:47.217Z,4.33
2023-02-22T14:26:39.293Z,4.03
2023-02-22T14:29:08.875Z,4.47
2023-02-22T14:31:43.357Z,4.33
2023-02-22T14:34:12.563Z,3.90
2023-02-22T14:36:54.841Z,4.40
2023-02-22T14:39:42.399Z,4.33
2023-02-22T14:42:38.378Z,4.87
2023-02-22T14:45:12.895Z,4.60
2023-02-22T14:48:16.592Z,4.17
2023-02-22T14:50:57.911Z,4.60
2023-02-22T14:53:40.800Z,4.80
2023-02-22T14:56:15.731Z,4.83
